sensor_id;sensor_type;location;lat;lon;timestamp;P1;durP1;ratioP1;P2;durP2;ratioP2
38717;SDS011;24468;52.128;9.278;2023-11-19T00:02:22;0.70;;;0.70;;
38717;SDS011;24468;52.128;9.278;2023-11-19T00:04:48;0.80;;;0.50;;
38717;SDS011;24468;52.128;9.278;2023-11-19T00:07:14;0.50;;;0.47;;
38717;SDS011;24468;52.128;9.278;2023-11-19T00:09:40;1.30;;;0.50;;
38717;SDS011;24468;52.128;9.278;2023-11-19T00:12:06;0.90;;;0.60;;
38717;SDS011;24468;52.128;9.278;2023-11-19T00:14:32;1.77;;;0.50;;
38717;SDS011;24468;52.128;9.278;2023-11-19T00:16:59;0.50;;;0.30;;
38717;SDS011;24468;52.128;9.278;2023-11-19T00:19:25;0.25;;;0.25;;
38717;SDS011;24468;52.128;9.278;2023-11-19T00:21:51;0.68;;;0.50;;
38717;SDS011;24468;52.128;9.278;2023-11-19T00:24:17;0.17;;;0.17;;
38717;SDS011;24468;52.128;9.278;2023-11-19T00:26:43;0.22;;;0.22;;
38717;SDS011;24468;52.128;9.278;2023-11-19T00:29:09;0.90;;;0.40;;
38717;SDS011;24468;52.128;9.278;2023-11-19T00:31:35;0.50;;;0.50;;
38717;SDS011;24468;52.128;9.278;2023-11-19T00:34:01;1.33;;;0.50;;
38717;SDS011;24468;52.128;9.278;2023-11-19T00:36:27;0.28;;;0.28;;
38717;SDS011;24468;52.128;9.278;2023-11-19T00:38:53;1.90;;;0.40;;
38717;SDS011;24468;52.128;9.278;2023-11-19T00:41:19;2.20;;;0.40;;
38717;SDS011;24468;52.128;9.278;2023-11-19T00:43:45;0.40;;;0.32;;
38717;SDS011;24468;52.128;9.278;2023-11-19T00:46:10;0.50;;;0.40;;
38717;SDS011;24468;52.128;9.278;2023-11-19T00:48:36;0.43;;;0.20;;
38717;SDS011;24468;52.128;9.278;2023-11-19T00:51:02;0.13;;;0.13;;
38717;SDS011;24468;52.128;9.278;2023-11-19T00:53:29;0.10;;;0.10;;
38717;SDS011;24468;52.128;9.278;2023-11-19T00:55:55;0.25;;;0.25;;
38717;SDS011;24468;52.128;9.278;2023-11-19T00:58:21;0.30;;;0.30;;
38717;SDS011;24468;52.128;9.278;2023-11-19T01:00:46;0.45;;;0.40;;
38717;SDS011;24468;52.128;9.278;2023-11-19T01:03:12;0.80;;;0.50;;
38717;SDS011;24468;52.128;9.278;2023-11-19T01:05:37;1.27;;;0.45;;
38717;SDS011;24468;52.128;9.278;2023-11-19T01:08:04;0.15;;;0.13;;
38717;SDS011;24468;52.128;9.278;2023-11-19T01:10:30;0.30;;;0.10;;
38717;SDS011;24468;52.128;9.278;2023-11-19T01:12:55;0.00;;;0.00;;
38717;SDS011;24468;52.128;9.278;2023-11-19T01:15:22;0.20;;;0.20;;
38717;SDS011;24468;52.128;9.278;2023-11-19T01:17:47;0.10;;;0.10;;
38717;SDS011;24468;52.128;9.278;2023-11-19T01:20:13;0.52;;;0.10;;
38717;SDS011;24468;52.128;9.278;2023-11-19T01:22:39;0.40;;;0.10;;
38717;SDS011;24468;52.128;9.278;2023-11-19T01:25:05;0.10;;;0.10;;
38717;SDS011;24468;52.128;9.278;2023-11-19T01:27:32;0.20;;;0.20;;
38717;SDS011;24468;52.128;9.278;2023-11-19T01:29:59;1.35;;;0.30;;
38717;SDS011;24468;52.128;9.278;2023-11-19T01:32:28;0.20;;;0.17;;
38717;SDS011;24468;52.128;9.278;2023-11-19T01:34:53;0.40;;;0.10;;
38717;SDS011;24468;52.128;9.278;2023-11-19T01:37:19;0.22;;;0.20;;
38717;SDS011;24468;52.128;9.278;2023-11-19T01:39:44;0.20;;;0.20;;
38717;SDS011;24468;52.128;9.278;2023-11-19T01:42:10;0.08;;;0.08;;
38717;SDS011;24468;52.128;9.278;2023-11-19T01:44:37;0.10;;;0.10;;
38717;SDS011;24468;52.128;9.278;2023-11-19T01:47:03;0.50;;;0.20;;
38717;SDS011;24468;52.128;9.278;2023-11-19T01:49:29;0.20;;;0.10;;
38717;SDS011;24468;52.128;9.278;2023-11-19T01:51:57;0.15;;;0.15;;
38717;SDS011;24468;52.128;9.278;2023-11-19T01:54:23;0.08;;;0.08;;
38717;SDS011;24468;52.128;9.278;2023-11-19T01:56:49;0.00;;;0.00;;
38717;SDS011;24468;52.128;9.278;2023-11-19T01:59:16;0.10;;;0.10;;
38717;SDS011;24468;52.128;9.278;2023-11-19T02:01:42;0.50;;;0.22;;
38717;SDS011;24468;52.128;9.278;2023-11-19T02:04:08;0.73;;;0.17;;
38717;SDS011;24468;52.128;9.278;2023-11-19T02:06:34;0.10;;;0.10;;
38717;SDS011;24468;52.128;9.278;2023-11-19T02:09:05;0.10;;;0.10;;
38717;SDS011;24468;52.128;9.278;2023-11-19T02:11:33;1.85;;;0.20;;
38717;SDS011;24468;52.128;9.278;2023-11-19T02:14:01;0.10;;;0.10;;
38717;SDS011;24468;52.128;9.278;2023-11-19T02:16:29;1.15;;;0.20;;
38717;SDS011;24468;52.128;9.278;2023-11-19T02:18:55;1.60;;;0.13;;
38717;SDS011;24468;52.128;9.278;2023-11-19T02:21:20;0.10;;;0.10;;
38717;SDS011;24468;52.128;9.278;2023-11-19T02:23:46;0.00;;;0.00;;
38717;SDS011;24468;52.128;9.278;2023-11-19T02:28:49;0.13;;;0.13;;
38717;SDS011;24468;52.128;9.278;2023-11-19T02:31:15;0.20;;;0.15;;
38717;SDS011;24468;52.128;9.278;2023-11-19T02:33:40;0.10;;;0.10;;
38717;SDS011;24468;52.128;9.278;2023-11-19T02:36:06;0.20;;;0.10;;
38717;SDS011;24468;52.128;9.278;2023-11-19T02:38:33;0.40;;;0.10;;
38717;SDS011;24468;52.128;9.278;2023-11-19T02:41:02;0.20;;;0.20;;
38717;SDS011;24468;52.128;9.278;2023-11-19T02:43:31;0.22;;;0.10;;
38717;SDS011;24468;52.128;9.278;2023-11-19T02:46:01;0.20;;;0.20;;
38717;SDS011;24468;52.128;9.278;2023-11-19T02:48:33;0.52;;;0.30;;
38717;SDS011;24468;52.128;9.278;2023-11-19T02:51:00;1.58;;;0.30;;
38717;SDS011;24468;52.128;9.278;2023-11-19T02:53:29;0.55;;;0.30;;
38717;SDS011;24468;52.128;9.278;2023-11-19T02:55:56;0.90;;;0.30;;
38717;SDS011;24468;52.128;9.278;2023-11-19T02:58:37;0.45;;;0.45;;
38717;SDS011;24468;52.128;9.278;2023-11-19T03:01:04;0.40;;;0.40;;
38717;SDS011;24468;52.128;9.278;2023-11-19T03:03:37;1.17;;;0.43;;
38717;SDS011;24468;52.128;9.278;2023-11-19T03:06:05;0.60;;;0.40;;
38717;SDS011;24468;52.128;9.278;2023-11-19T03:08:32;0.30;;;0.30;;
38717;SDS011;24468;52.128;9.278;2023-11-19T03:11:00;0.30;;;0.30;;
38717;SDS011;24468;52.128;9.278;2023-11-19T03:13:26;0.60;;;0.40;;
38717;SDS011;24468;52.128;9.278;2023-11-19T03:15:51;0.10;;;0.10;;
38717;SDS011;24468;52.128;9.278;2023-11-19T03:18:18;0.90;;;0.32;;
38717;SDS011;24468;52.128;9.278;2023-11-19T03:20:45;0.40;;;0.40;;
38717;SDS011;24468;52.128;9.278;2023-11-19T03:23:12;1.35;;;0.30;;
38717;SDS011;24468;52.128;9.278;2023-11-19T03:25:37;0.40;;;0.30;;
38717;SDS011;24468;52.128;9.278;2023-11-19T03:28:03;0.38;;;0.35;;
38717;SDS011;24468;52.128;9.278;2023-11-19T03:30:29;0.30;;;0.20;;
38717;SDS011;24468;52.128;9.278;2023-11-19T03:32:56;1.55;;;0.30;;
38717;SDS011;24468;52.128;9.278;2023-11-19T03:35:22;3.90;;;1.13;;
38717;SDS011;24468;52.128;9.278;2023-11-19T03:37:49;2.00;;;0.38;;
38717;SDS011;24468;52.128;9.278;2023-11-19T03:40:16;0.50;;;0.50;;
38717;SDS011;24468;52.128;9.278;2023-11-19T03:42:43;2.17;;;1.50;;
38717;SDS011;24468;52.128;9.278;2023-11-19T03:45:10;0.60;;;0.40;;
38717;SDS011;24468;52.128;9.278;2023-11-19T03:47:35;0.70;;;0.70;;
38717;SDS011;24468;52.128;9.278;2023-11-19T03:50:01;1.40;;;0.70;;
38717;SDS011;24468;52.128;9.278;2023-11-19T03:52:28;0.40;;;0.35;;
38717;SDS011;24468;52.128;9.278;2023-11-19T03:54:54;3.53;;;1.02;;
38717;SDS011;24468;52.128;9.278;2023-11-19T03:57:20;1.80;;;0.90;;
38717;SDS011;24468;52.128;9.278;2023-11-19T03:59:46;4.57;;;2.13;;
38717;SDS011;24468;52.128;9.278;2023-11-19T04:02:12;6.13;;;2.25;;
38717;SDS011;24468;52.128;9.278;2023-11-19T04:04:38;6.28;;;2.22;;
38717;SDS011;24468;52.128;9.278;2023-11-19T04:07:04;4.13;;;1.88;;
38717;SDS011;24468;52.128;9.278;2023-11-19T04:09:30;3.22;;;1.90;;
38717;SDS011;24468;52.128;9.278;2023-11-19T04:11:58;3.55;;;1.88;;
38717;SDS011;24468;52.128;9.278;2023-11-19T04:14:24;6.03;;;3.08;;
38717;SDS011;24468;52.128;9.278;2023-11-19T04:16:50;7.63;;;1.95;;
38717;SDS011;24468;52.128;9.278;2023-11-19T04:19:16;6.25;;;2.00;;
38717;SDS011;24468;52.128;9.278;2023-11-19T04:21:42;3.88;;;2.10;;
38717;SDS011;24468;52.128;9.278;2023-11-19T04:24:11;3.70;;;2.00;;
38717;SDS011;24468;52.128;9.278;2023-11-19T04:26:39;5.55;;;2.10;;
38717;SDS011;24468;52.128;9.278;2023-11-19T04:29:11;4.53;;;1.65;;
38717;SDS011;24468;52.128;9.278;2023-11-19T04:31:38;3.40;;;1.70;;
38717;SDS011;24468;52.128;9.278;2023-11-19T04:34:04;4.05;;;1.90;;
38717;SDS011;24468;52.128;9.278;2023-11-19T04:36:31;3.38;;;1.25;;
38717;SDS011;24468;52.128;9.278;2023-11-19T04:38:58;3.67;;;1.90;;
38717;SDS011;24468;52.128;9.278;2023-11-19T04:41:25;5.47;;;2.40;;
38717;SDS011;24468;52.128;9.278;2023-11-19T04:43:52;5.70;;;1.58;;
38717;SDS011;24468;52.128;9.278;2023-11-19T04:46:18;2.30;;;1.58;;
38717;SDS011;24468;52.128;9.278;2023-11-19T04:48:44;3.53;;;1.52;;
38717;SDS011;24468;52.128;9.278;2023-11-19T04:51:09;2.40;;;1.73;;
38717;SDS011;24468;52.128;9.278;2023-11-19T04:53:35;5.65;;;2.15;;
38717;SDS011;24468;52.128;9.278;2023-11-19T04:56:01;2.17;;;1.48;;
38717;SDS011;24468;52.128;9.278;2023-11-19T04:58:32;4.18;;;1.40;;
38717;SDS011;24468;52.128;9.278;2023-11-19T05:00:57;7.32;;;2.17;;
38717;SDS011;24468;52.128;9.278;2023-11-19T05:03:23;6.25;;;1.67;;
38717;SDS011;24468;52.128;9.278;2023-11-19T05:05:48;5.60;;;2.00;;
38717;SDS011;24468;52.128;9.278;2023-11-19T05:08:14;3.38;;;1.25;;
38717;SDS011;24468;52.128;9.278;2023-11-19T05:10:39;5.35;;;1.63;;
38717;SDS011;24468;52.128;9.278;2023-11-19T05:13:05;2.33;;;1.40;;
38717;SDS011;24468;52.128;9.278;2023-11-19T05:15:30;5.28;;;2.15;;
38717;SDS011;24468;52.128;9.278;2023-11-19T05:17:56;9.55;;;2.13;;
38717;SDS011;24468;52.128;9.278;2023-11-19T05:20:21;6.20;;;1.90;;
38717;SDS011;24468;52.128;9.278;2023-11-19T05:22:47;7.05;;;2.25;;
38717;SDS011;24468;52.128;9.278;2023-11-19T05:25:13;4.90;;;1.90;;
38717;SDS011;24468;52.128;9.278;2023-11-19T05:27:38;5.22;;;2.20;;
38717;SDS011;24468;52.128;9.278;2023-11-19T05:30:04;4.90;;;2.17;;
38717;SDS011;24468;52.128;9.278;2023-11-19T05:32:32;5.68;;;1.98;;
38717;SDS011;24468;52.128;9.278;2023-11-19T05:34:58;5.85;;;2.00;;
38717;SDS011;24468;52.128;9.278;2023-11-19T05:37:24;5.85;;;1.80;;
38717;SDS011;24468;52.128;9.278;2023-11-19T05:39:50;8.63;;;2.22;;
38717;SDS011;24468;52.128;9.278;2023-11-19T05:42:15;9.45;;;2.60;;
38717;SDS011;24468;52.128;9.278;2023-11-19T05:44:42;7.43;;;2.35;;
38717;SDS011;24468;52.128;9.278;2023-11-19T05:47:07;12.18;;;3.38;;
38717;SDS011;24468;52.128;9.278;2023-11-19T05:49:33;10.15;;;3.28;;
38717;SDS011;24468;52.128;9.278;2023-11-19T05:51:58;13.70;;;3.40;;
38717;SDS011;24468;52.128;9.278;2023-11-19T05:54:24;8.38;;;2.83;;
38717;SDS011;24468;52.128;9.278;2023-11-19T05:56:50;8.32;;;2.97;;
38717;SDS011;24468;52.128;9.278;2023-11-19T05:59:18;9.73;;;3.03;;
38717;SDS011;24468;52.128;9.278;2023-11-19T06:01:44;6.57;;;1.90;;
38717;SDS011;24468;52.128;9.278;2023-11-19T06:04:10;9.45;;;2.35;;
38717;SDS011;24468;52.128;9.278;2023-11-19T06:06:36;11.48;;;2.28;;
38717;SDS011;24468;52.128;9.278;2023-11-19T06:09:02;11.10;;;3.65;;
38717;SDS011;24468;52.128;9.278;2023-11-19T06:11:28;6.95;;;2.28;;
38717;SDS011;24468;52.128;9.278;2023-11-19T06:13:54;10.68;;;2.90;;
38717;SDS011;24468;52.128;9.278;2023-11-19T06:16:19;9.75;;;3.25;;
38717;SDS011;24468;52.128;9.278;2023-11-19T06:18:45;6.70;;;2.30;;
38717;SDS011;24468;52.128;9.278;2023-11-19T06:21:11;12.57;;;2.90;;
38717;SDS011;24468;52.128;9.278;2023-11-19T06:23:37;10.07;;;2.85;;
38717;SDS011;24468;52.128;9.278;2023-11-19T06:26:03;9.85;;;3.00;;
38717;SDS011;24468;52.128;9.278;2023-11-19T06:28:30;11.13;;;3.15;;
38717;SDS011;24468;52.128;9.278;2023-11-19T06:30:56;14.25;;;2.67;;
38717;SDS011;24468;52.128;9.278;2023-11-19T06:33:23;9.35;;;2.60;;
38717;SDS011;24468;52.128;9.278;2023-11-19T06:35:49;7.25;;;2.13;;
38717;SDS011;24468;52.128;9.278;2023-11-19T06:38:15;14.75;;;3.65;;
38717;SDS011;24468;52.128;9.278;2023-11-19T06:40:40;6.63;;;2.42;;
38717;SDS011;24468;52.128;9.278;2023-11-19T06:43:06;9.68;;;2.80;;
38717;SDS011;24468;52.128;9.278;2023-11-19T06:45:34;9.65;;;3.00;;
38717;SDS011;24468;52.128;9.278;2023-11-19T06:48:03;14.45;;;2.85;;
38717;SDS011;24468;52.128;9.278;2023-11-19T06:50:29;11.50;;;3.60;;
38717;SDS011;24468;52.128;9.278;2023-11-19T06:52:56;12.88;;;2.78;;
38717;SDS011;24468;52.128;9.278;2023-11-19T06:55:21;10.40;;;3.00;;
38717;SDS011;24468;52.128;9.278;2023-11-19T06:57:47;9.10;;;2.95;;
38717;SDS011;24468;52.128;9.278;2023-11-19T07:00:12;7.85;;;2.60;;
38717;SDS011;24468;52.128;9.278;2023-11-19T07:02:38;12.48;;;3.40;;
38717;SDS011;24468;52.128;9.278;2023-11-19T07:05:04;16.25;;;3.00;;
38717;SDS011;24468;52.128;9.278;2023-11-19T07:07:31;14.10;;;3.03;;
38717;SDS011;24468;52.128;9.278;2023-11-19T07:09:57;12.25;;;3.60;;
38717;SDS011;24468;52.128;9.278;2023-11-19T07:12:23;10.63;;;3.95;;
38717;SDS011;24468;52.128;9.278;2023-11-19T07:14:51;12.48;;;3.65;;
38717;SDS011;24468;52.128;9.278;2023-11-19T07:17:18;15.68;;;3.85;;
38717;SDS011;24468;52.128;9.278;2023-11-19T07:19:45;11.13;;;3.33;;
38717;SDS011;24468;52.128;9.278;2023-11-19T07:22:11;11.88;;;3.22;;
38717;SDS011;24468;52.128;9.278;2023-11-19T07:24:38;12.90;;;3.00;;
38717;SDS011;24468;52.128;9.278;2023-11-19T07:27:05;19.85;;;3.75;;
38717;SDS011;24468;52.128;9.278;2023-11-19T07:29:31;12.40;;;3.90;;
38717;SDS011;24468;52.128;9.278;2023-11-19T07:31:57;15.52;;;3.40;;
38717;SDS011;24468;52.128;9.278;2023-11-19T07:34:22;13.88;;;3.42;;
38717;SDS011;24468;52.128;9.278;2023-11-19T07:36:49;14.57;;;4.47;;
38717;SDS011;24468;52.128;9.278;2023-11-19T07:39:15;15.45;;;4.70;;
38717;SDS011;24468;52.128;9.278;2023-11-19T07:41:40;10.95;;;3.15;;
38717;SDS011;24468;52.128;9.278;2023-11-19T07:44:06;18.75;;;5.10;;
38717;SDS011;24468;52.128;9.278;2023-11-19T07:46:31;13.23;;;3.88;;
38717;SDS011;24468;52.128;9.278;2023-11-19T07:48:57;14.40;;;2.85;;
38717;SDS011;24468;52.128;9.278;2023-11-19T07:51:23;11.73;;;3.92;;
38717;SDS011;24468;52.128;9.278;2023-11-19T07:53:48;10.60;;;3.92;;
38717;SDS011;24468;52.128;9.278;2023-11-19T07:56:14;15.80;;;3.67;;
38717;SDS011;24468;52.128;9.278;2023-11-19T07:58:40;16.70;;;4.03;;
38717;SDS011;24468;52.128;9.278;2023-11-19T08:01:06;15.80;;;4.78;;
38717;SDS011;24468;52.128;9.278;2023-11-19T08:03:32;13.63;;;3.65;;
38717;SDS011;24468;52.128;9.278;2023-11-19T08:06:00;13.07;;;3.58;;
38717;SDS011;24468;52.128;9.278;2023-11-19T08:08:28;11.82;;;3.47;;
38717;SDS011;24468;52.128;9.278;2023-11-19T08:10:58;14.60;;;3.90;;
38717;SDS011;24468;52.128;9.278;2023-11-19T08:13:24;16.02;;;4.80;;
38717;SDS011;24468;52.128;9.278;2023-11-19T08:15:50;18.70;;;3.70;;
38717;SDS011;24468;52.128;9.278;2023-11-19T08:18:16;20.23;;;5.95;;
38717;SDS011;24468;52.128;9.278;2023-11-19T08:20:43;10.93;;;4.45;;
38717;SDS011;24468;52.128;9.278;2023-11-19T08:23:09;19.23;;;5.18;;
38717;SDS011;24468;52.128;9.278;2023-11-19T08:25:35;18.23;;;5.63;;
38717;SDS011;24468;52.128;9.278;2023-11-19T08:28:01;18.23;;;5.28;;
38717;SDS011;24468;52.128;9.278;2023-11-19T08:30:28;14.00;;;4.68;;
38717;SDS011;24468;52.128;9.278;2023-11-19T08:32:54;20.23;;;5.78;;
38717;SDS011;24468;52.128;9.278;2023-11-19T08:35:20;23.02;;;6.00;;
38717;SDS011;24468;52.128;9.278;2023-11-19T08:37:45;18.27;;;4.95;;
38717;SDS011;24468;52.128;9.278;2023-11-19T08:40:11;15.02;;;4.32;;
38717;SDS011;24468;52.128;9.278;2023-11-19T08:42:39;12.65;;;4.25;;
38717;SDS011;24468;52.128;9.278;2023-11-19T08:45:06;21.83;;;5.60;;
38717;SDS011;24468;52.128;9.278;2023-11-19T08:47:35;15.82;;;3.72;;
38717;SDS011;24468;52.128;9.278;2023-11-19T08:50:01;17.10;;;5.03;;
38717;SDS011;24468;52.128;9.278;2023-11-19T08:52:28;12.55;;;3.90;;
38717;SDS011;24468;52.128;9.278;2023-11-19T08:54:54;15.70;;;4.57;;
38717;SDS011;24468;52.128;9.278;2023-11-19T08:57:20;17.80;;;5.15;;
38717;SDS011;24468;52.128;9.278;2023-11-19T08:59:45;17.40;;;4.88;;
38717;SDS011;24468;52.128;9.278;2023-11-19T09:02:11;13.40;;;4.10;;
38717;SDS011;24468;52.128;9.278;2023-11-19T09:04:36;22.10;;;5.55;;
38717;SDS011;24468;52.128;9.278;2023-11-19T09:07:02;13.85;;;4.30;;
38717;SDS011;24468;52.128;9.278;2023-11-19T09:09:28;12.88;;;3.78;;
38717;SDS011;24468;52.128;9.278;2023-11-19T09:11:55;17.27;;;4.43;;
38717;SDS011;24468;52.128;9.278;2023-11-19T09:14:20;18.15;;;3.50;;
38717;SDS011;24468;52.128;9.278;2023-11-19T09:16:50;15.85;;;4.57;;
38717;SDS011;24468;52.128;9.278;2023-11-19T09:19:16;19.10;;;5.00;;
38717;SDS011;24468;52.128;9.278;2023-11-19T09:21:42;18.17;;;4.55;;
38717;SDS011;24468;52.128;9.278;2023-11-19T09:24:08;20.67;;;5.68;;
38717;SDS011;24468;52.128;9.278;2023-11-19T09:26:34;17.27;;;5.25;;
38717;SDS011;24468;52.128;9.278;2023-11-19T09:29:01;24.00;;;5.70;;
38717;SDS011;24468;52.128;9.278;2023-11-19T09:31:27;13.40;;;3.75;;
38717;SDS011;24468;52.128;9.278;2023-11-19T09:33:52;13.02;;;3.55;;
38717;SDS011;24468;52.128;9.278;2023-11-19T09:36:18;19.08;;;5.20;;
38717;SDS011;24468;52.128;9.278;2023-11-19T09:38:44;24.08;;;4.20;;
38717;SDS011;24468;52.128;9.278;2023-11-19T09:41:10;18.85;;;4.50;;
38717;SDS011;24468;52.128;9.278;2023-11-19T09:43:39;17.48;;;3.60;;
38717;SDS011;24468;52.128;9.278;2023-11-19T09:46:06;13.55;;;3.83;;
38717;SDS011;24468;52.128;9.278;2023-11-19T09:48:36;18.83;;;5.38;;
38717;SDS011;24468;52.128;9.278;2023-11-19T09:51:04;16.20;;;4.35;;
38717;SDS011;24468;52.128;9.278;2023-11-19T09:53:30;12.18;;;4.00;;
38717;SDS011;24468;52.128;9.278;2023-11-19T09:55:57;13.05;;;4.93;;
38717;SDS011;24468;52.128;9.278;2023-11-19T09:58:27;18.35;;;4.43;;
38717;SDS011;24468;52.128;9.278;2023-11-19T10:00:54;14.77;;;4.07;;
38717;SDS011;24468;52.128;9.278;2023-11-19T10:03:19;15.05;;;4.15;;
38717;SDS011;24468;52.128;9.278;2023-11-19T10:05:47;17.50;;;3.70;;
38717;SDS011;24468;52.128;9.278;2023-11-19T10:08:13;11.25;;;3.78;;
38717;SDS011;24468;52.128;9.278;2023-11-19T10:10:39;23.42;;;5.28;;
38717;SDS011;24468;52.128;9.278;2023-11-19T10:13:04;21.13;;;5.07;;
38717;SDS011;24468;52.128;9.278;2023-11-19T10:15:33;14.70;;;5.07;;
38717;SDS011;24468;52.128;9.278;2023-11-19T10:18:02;17.48;;;4.00;;
38717;SDS011;24468;52.128;9.278;2023-11-19T10:20:38;13.57;;;4.22;;
38717;SDS011;24468;52.128;9.278;2023-11-19T10:23:06;20.58;;;4.50;;
38717;SDS011;24468;52.128;9.278;2023-11-19T10:25:32;17.17;;;5.13;;
38717;SDS011;24468;52.128;9.278;2023-11-19T10:27:59;14.05;;;3.97;;
38717;SDS011;24468;52.128;9.278;2023-11-19T10:30:26;15.88;;;4.50;;
38717;SDS011;24468;52.128;9.278;2023-11-19T10:33:03;18.50;;;6.13;;
38717;SDS011;24468;52.128;9.278;2023-11-19T10:35:35;20.27;;;4.82;;
38717;SDS011;24468;52.128;9.278;2023-11-19T10:38:19;10.68;;;3.72;;
38717;SDS011;24468;52.128;9.278;2023-11-19T10:40:47;20.95;;;4.80;;
38717;SDS011;24468;52.128;9.278;2023-11-19T10:43:13;19.25;;;3.85;;
38717;SDS011;24468;52.128;9.278;2023-11-19T10:45:39;22.70;;;5.50;;
38717;SDS011;24468;52.128;9.278;2023-11-19T10:48:05;16.10;;;5.55;;
38717;SDS011;24468;52.128;9.278;2023-11-19T10:50:35;13.07;;;3.92;;
38717;SDS011;24468;52.128;9.278;2023-11-19T10:53:02;16.00;;;4.57;;
38717;SDS011;24468;52.128;9.278;2023-11-19T10:55:33;20.85;;;4.32;;
38717;SDS011;24468;52.128;9.278;2023-11-19T10:58:02;20.83;;;4.28;;
38717;SDS011;24468;52.128;9.278;2023-11-19T11:00:43;20.60;;;5.20;;
38717;SDS011;24468;52.128;9.278;2023-11-19T11:03:16;19.13;;;5.72;;
38717;SDS011;24468;52.128;9.278;2023-11-19T11:05:46;19.50;;;5.63;;
38717;SDS011;24468;52.128;9.278;2023-11-19T11:08:13;18.30;;;4.47;;
38717;SDS011;24468;52.128;9.278;2023-11-19T11:10:42;16.60;;;4.75;;
38717;SDS011;24468;52.128;9.278;2023-11-19T11:13:17;16.38;;;4.72;;
38717;SDS011;24468;52.128;9.278;2023-11-19T11:15:44;17.40;;;5.10;;
38717;SDS011;24468;52.128;9.278;2023-11-19T11:18:14;23.83;;;5.45;;
38717;SDS011;24468;52.128;9.278;2023-11-19T11:20:39;13.63;;;3.85;;
38717;SDS011;24468;52.128;9.278;2023-11-19T11:25:54;18.58;;;4.57;;
38717;SDS011;24468;52.128;9.278;2023-11-19T11:28:35;19.95;;;4.97;;
38717;SDS011;24468;52.128;9.278;2023-11-19T11:31:36;20.27;;;8.05;;
38717;SDS011;24468;52.128;9.278;2023-11-19T11:40:16;20.65;;;4.70;;
38717;SDS011;24468;52.128;9.278;2023-11-19T11:42:43;21.35;;;5.90;;
38717;SDS011;24468;52.128;9.278;2023-11-19T11:45:10;16.33;;;4.38;;
38717;SDS011;24468;52.128;9.278;2023-11-19T11:50:14;22.48;;;5.53;;
38717;SDS011;24468;52.128;9.278;2023-11-19T11:55:37;21.27;;;4.80;;
38717;SDS011;24468;52.128;9.278;2023-11-19T11:58:30;16.85;;;5.55;;
38717;SDS011;24468;52.128;9.278;2023-11-19T12:00:57;17.67;;;5.28;;
38717;SDS011;24468;52.128;9.278;2023-11-19T12:03:27;16.92;;;4.28;;
38717;SDS011;24468;52.128;9.278;2023-11-19T12:05:54;29.48;;;5.30;;
38717;SDS011;24468;52.128;9.278;2023-11-19T12:08:24;22.52;;;5.75;;
38717;SDS011;24468;52.128;9.278;2023-11-19T12:10:54;13.40;;;4.07;;
38717;SDS011;24468;52.128;9.278;2023-11-19T12:13:23;14.23;;;3.53;;
38717;SDS011;24468;52.128;9.278;2023-11-19T12:18:21;18.52;;;4.57;;
38717;SDS011;24468;52.128;9.278;2023-11-19T12:20:48;18.55;;;4.38;;
38717;SDS011;24468;52.128;9.278;2023-11-19T12:23:14;24.30;;;5.60;;
38717;SDS011;24468;52.128;9.278;2023-11-19T12:25:40;12.57;;;3.38;;
38717;SDS011;24468;52.128;9.278;2023-11-19T12:28:11;18.92;;;4.30;;
38717;SDS011;24468;52.128;9.278;2023-11-19T12:33:07;20.75;;;7.95;;
38717;SDS011;24468;52.128;9.278;2023-11-19T12:35:43;20.75;;;6.97;;
38717;SDS011;24468;52.128;9.278;2023-11-19T12:40:45;17.10;;;5.03;;
38717;SDS011;24468;52.128;9.278;2023-11-19T12:43:13;14.30;;;4.50;;
38717;SDS011;24468;52.128;9.278;2023-11-19T12:45:47;20.13;;;6.18;;
38717;SDS011;24468;52.128;9.278;2023-11-19T12:48:13;13.95;;;3.88;;
38717;SDS011;24468;52.128;9.278;2023-11-19T12:50:51;16.27;;;4.65;;
38717;SDS011;24468;52.128;9.278;2023-11-19T12:53:19;17.35;;;4.78;;
38717;SDS011;24468;52.128;9.278;2023-11-19T12:55:46;25.33;;;6.10;;
38717;SDS011;24468;52.128;9.278;2023-11-19T12:58:28;12.63;;;4.15;;
38717;SDS011;24468;52.128;9.278;2023-11-19T13:01:04;13.85;;;3.35;;
38717;SDS011;24468;52.128;9.278;2023-11-19T13:03:35;22.20;;;4.63;;
38717;SDS011;24468;52.128;9.278;2023-11-19T13:08:40;18.60;;;4.93;;
38717;SDS011;24468;52.128;9.278;2023-11-19T13:11:11;18.35;;;4.25;;
38717;SDS011;24468;52.128;9.278;2023-11-19T13:14:00;11.98;;;4.03;;
38717;SDS011;24468;52.128;9.278;2023-11-19T13:16:33;15.88;;;5.53;;
38717;SDS011;24468;52.128;9.278;2023-11-19T13:19:02;19.48;;;9.40;;
38717;SDS011;24468;52.128;9.278;2023-11-19T13:21:27;19.77;;;5.38;;
38717;SDS011;24468;52.128;9.278;2023-11-19T13:23:55;13.93;;;4.38;;
38717;SDS011;24468;52.128;9.278;2023-11-19T13:26:21;19.27;;;6.53;;
38717;SDS011;24468;52.128;9.278;2023-11-19T13:28:47;29.33;;;11.25;;
38717;SDS011;24468;52.128;9.278;2023-11-19T13:31:12;16.75;;;4.88;;
38717;SDS011;24468;52.128;9.278;2023-11-19T13:33:38;15.30;;;4.43;;
38717;SDS011;24468;52.128;9.278;2023-11-19T13:36:04;17.20;;;4.93;;
38717;SDS011;24468;52.128;9.278;2023-11-19T13:38:35;22.42;;;5.93;;
38717;SDS011;24468;52.128;9.278;2023-11-19T13:41:04;14.40;;;3.75;;
38717;SDS011;24468;52.128;9.278;2023-11-19T13:43:30;16.83;;;4.72;;
38717;SDS011;24468;52.128;9.278;2023-11-19T13:45:56;16.00;;;4.97;;
38717;SDS011;24468;52.128;9.278;2023-11-19T13:48:25;20.05;;;5.28;;
38717;SDS011;24468;52.128;9.278;2023-11-19T13:50:52;18.23;;;3.80;;
38717;SDS011;24468;52.128;9.278;2023-11-19T13:53:18;16.90;;;5.15;;
38717;SDS011;24468;52.128;9.278;2023-11-19T13:55:43;13.65;;;4.07;;
38717;SDS011;24468;52.128;9.278;2023-11-19T13:58:09;13.13;;;3.83;;
38717;SDS011;24468;52.128;9.278;2023-11-19T14:00:35;19.08;;;5.60;;
38717;SDS011;24468;52.128;9.278;2023-11-19T14:03:01;22.55;;;4.38;;
38717;SDS011;24468;52.128;9.278;2023-11-19T14:05:27;22.33;;;5.68;;
38717;SDS011;24468;52.128;9.278;2023-11-19T14:07:53;25.17;;;4.55;;
38717;SDS011;24468;52.128;9.278;2023-11-19T14:10:21;15.38;;;4.05;;
38717;SDS011;24468;52.128;9.278;2023-11-19T14:12:47;14.23;;;4.03;;
38717;SDS011;24468;52.128;9.278;2023-11-19T14:15:12;17.75;;;5.85;;
38717;SDS011;24468;52.128;9.278;2023-11-19T14:17:38;14.80;;;4.13;;
38717;SDS011;24468;52.128;9.278;2023-11-19T14:20:05;16.30;;;4.40;;
38717;SDS011;24468;52.128;9.278;2023-11-19T14:22:47;14.30;;;4.43;;
38717;SDS011;24468;52.128;9.278;2023-11-19T14:25:14;13.52;;;3.65;;
38717;SDS011;24468;52.128;9.278;2023-11-19T14:27:40;13.68;;;4.35;;
38717;SDS011;24468;52.128;9.278;2023-11-19T14:30:08;20.83;;;4.68;;
38717;SDS011;24468;52.128;9.278;2023-11-19T14:32:36;15.85;;;3.80;;
38717;SDS011;24468;52.128;9.278;2023-11-19T14:35:02;18.55;;;5.10;;
38717;SDS011;24468;52.128;9.278;2023-11-19T14:37:29;12.98;;;4.03;;
38717;SDS011;24468;52.128;9.278;2023-11-19T14:39:58;14.93;;;5.05;;
38717;SDS011;24468;52.128;9.278;2023-11-19T14:42:24;18.35;;;4.95;;
38717;SDS011;24468;52.128;9.278;2023-11-19T14:44:50;18.67;;;4.63;;
38717;SDS011;24468;52.128;9.278;2023-11-19T14:47:20;20.90;;;6.55;;
38717;SDS011;24468;52.128;9.278;2023-11-19T14:49:46;17.92;;;4.22;;
38717;SDS011;24468;52.128;9.278;2023-11-19T14:52:12;16.83;;;4.60;;
38717;SDS011;24468;52.128;9.278;2023-11-19T14:54:38;14.77;;;5.65;;
38717;SDS011;24468;52.128;9.278;2023-11-19T14:57:07;16.30;;;4.57;;
38717;SDS011;24468;52.128;9.278;2023-11-19T15:02:02;17.45;;;4.60;;
38717;SDS011;24468;52.128;9.278;2023-11-19T15:04:28;17.42;;;4.15;;
38717;SDS011;24468;52.128;9.278;2023-11-19T15:06:56;17.55;;;5.10;;
38717;SDS011;24468;52.128;9.278;2023-11-19T15:09:23;12.77;;;3.80;;
38717;SDS011;24468;52.128;9.278;2023-11-19T15:11:48;26.40;;;5.40;;